sensor_id;sensor_type;location;lat;lon;timestamp;pressure;altitude;pressure_sealevel;temperature
11424;BMP180;5768;51.476;7.210;2022-12-29T00:00:41;98963.00;;;13.70
11424;BMP180;5768;51.476;7.210;2022-12-29T00:05:43;98952.00;;;13.70
11424;BMP180;5768;51.476;7.210;2022-12-29T00:10:45;98941.00;;;13.80
11424;BMP180;5768;51.476;7.210;2022-12-29T00:15:48;98927.00;;;13.80
11424;BMP180;5768;51.476;7.210;2022-12-29T00:20:55;98924.00;;;13.80
11424;BMP180;5768;51.476;7.210;2022-12-29T00:26:16;98918.00;;;13.70
11424;BMP180;5768;51.476;7.210;2022-12-29T00:31:37;98921.00;;;13.70
11424;BMP180;5768;51.476;7.210;2022-12-29T00:36:57;98926.00;;;13.70
11424;BMP180;5768;51.476;7.210;2022-12-29T00:42:03;98910.00;;;13.70
11424;BMP180;5768;51.476;7.210;2022-12-29T00:47:27;98887.00;;;13.60
11424;BMP180;5768;51.476;7.210;2022-12-29T00:52:29;98888.00;;;13.70
11424;BMP180;5768;51.476;7.210;2022-12-29T00:57:31;98891.00;;;13.70
11424;BMP180;5768;51.476;7.210;2022-12-29T01:02:35;98894.00;;;13.70
11424;BMP180;5768;51.476;7.210;2022-12-29T01:07:37;98888.00;;;13.70
11424;BMP180;5768;51.476;7.210;2022-12-29T01:12:39;98880.00;;;13.50
11424;BMP180;5768;51.476;7.210;2022-12-29T01:17:47;98874.00;;;13.50
11424;BMP180;5768;51.476;7.210;2022-12-29T01:22:48;98868.00;;;13.60
11424;BMP180;5768;51.476;7.210;2022-12-29T01:27:50;98871.00;;;13.70
11424;BMP180;5768;51.476;7.210;2022-12-29T01:32:54;98861.00;;;13.70
11424;BMP180;5768;51.476;7.210;2022-12-29T01:37:56;98877.00;;;13.80
11424;BMP180;5768;51.476;7.210;2022-12-29T01:42:58;98876.00;;;13.90
11424;BMP180;5768;51.476;7.210;2022-12-29T01:48:05;98866.00;;;13.90
11424;BMP180;5768;51.476;7.210;2022-12-29T01:53:16;98860.00;;;13.90
11424;BMP180;5768;51.476;7.210;2022-12-29T01:58:26;98863.00;;;13.90
11424;BMP180;5768;51.476;7.210;2022-12-29T02:03:31;98884.00;;;14.00
11424;BMP180;5768;51.476;7.210;2022-12-29T02:08:35;98858.00;;;14.00
11424;BMP180;5768;51.476;7.210;2022-12-29T02:13:39;98856.00;;;14.00
11424;BMP180;5768;51.476;7.210;2022-12-29T02:18:59;98844.00;;;13.90
11424;BMP180;5768;51.476;7.210;2022-12-29T02:30:16;98831.00;;;13.90
11424;BMP180;5768;51.476;7.210;2022-12-29T02:35:30;98821.00;;;14.00
11424;BMP180;5768;51.476;7.210;2022-12-29T02:40:41;98834.00;;;14.10
11424;BMP180;5768;51.476;7.210;2022-12-29T02:45:53;98834.00;;;14.10
11424;BMP180;5768;51.476;7.210;2022-12-29T02:51:03;98819.00;;;14.20
11424;BMP180;5768;51.476;7.210;2022-12-29T02:56:06;98820.00;;;14.10
11424;BMP180;5768;51.476;7.210;2022-12-29T03:01:24;98809.00;;;14.10
11424;BMP180;5768;51.476;7.210;2022-12-29T03:06:44;98821.00;;;14.20
11424;BMP180;5768;51.476;7.210;2022-12-29T03:11:59;98834.00;;;14.30
11424;BMP180;5768;51.476;7.210;2022-12-29T03:17:20;98826.00;;;14.20
11424;BMP180;5768;51.476;7.210;2022-12-29T03:22:31;98805.00;;;14.30
11424;BMP180;5768;51.476;7.210;2022-12-29T03:27:41;98812.00;;;14.40
11424;BMP180;5768;51.476;7.210;2022-12-29T03:32:48;98801.00;;;14.40
11424;BMP180;5768;51.476;7.210;2022-12-29T03:37:59;98799.00;;;14.50
11424;BMP180;5768;51.476;7.210;2022-12-29T03:43:05;98798.00;;;14.50
11424;BMP180;5768;51.476;7.210;2022-12-29T03:48:07;98781.00;;;14.50
11424;BMP180;5768;51.476;7.210;2022-12-29T03:53:10;98779.00;;;14.10
11424;BMP180;5768;51.476;7.210;2022-12-29T03:58:12;98775.00;;;13.80
11424;BMP180;5768;51.476;7.210;2022-12-29T04:03:14;98781.00;;;13.80
11424;BMP180;5768;51.476;7.210;2022-12-29T04:08:18;98779.00;;;13.80
11424;BMP180;5768;51.476;7.210;2022-12-29T04:13:20;98764.00;;;13.90
11424;BMP180;5768;51.476;7.210;2022-12-29T04:18:22;98754.00;;;14.00
11424;BMP180;5768;51.476;7.210;2022-12-29T04:23:26;98749.00;;;14.10
11424;BMP180;5768;51.476;7.210;2022-12-29T04:28:29;98735.00;;;14.20
11424;BMP180;5768;51.476;7.210;2022-12-29T04:33:31;98732.00;;;14.30
11424;BMP180;5768;51.476;7.210;2022-12-29T04:38:36;98734.00;;;14.30
11424;BMP180;5768;51.476;7.210;2022-12-29T04:43:38;98744.00;;;14.30
11424;BMP180;5768;51.476;7.210;2022-12-29T04:48:40;98746.00;;;14.30
11424;BMP180;5768;51.476;7.210;2022-12-29T04:53:44;98748.00;;;14.40
11424;BMP180;5768;51.476;7.210;2022-12-29T04:58:46;98740.00;;;14.40
11424;BMP180;5768;51.476;7.210;2022-12-29T05:03:50;98757.00;;;14.50
11424;BMP180;5768;51.476;7.210;2022-12-29T05:08:54;98756.00;;;14.50
11424;BMP180;5768;51.476;7.210;2022-12-29T05:13:56;98762.00;;;14.60
11424;BMP180;5768;51.476;7.210;2022-12-29T05:18:58;98755.00;;;14.70
11424;BMP180;5768;51.476;7.210;2022-12-29T05:24:02;98769.00;;;14.60
11424;BMP180;5768;51.476;7.210;2022-12-29T05:29:04;98770.00;;;14.70
11424;BMP180;5768;51.476;7.210;2022-12-29T05:34:06;98771.00;;;14.70
11424;BMP180;5768;51.476;7.210;2022-12-29T05:39:10;98770.00;;;14.70
11424;BMP180;5768;51.476;7.210;2022-12-29T05:44:12;98784.00;;;14.70
11424;BMP180;5768;51.476;7.210;2022-12-29T05:49:15;98807.00;;;14.40
11424;BMP180;5768;51.476;7.210;2022-12-29T05:54:18;98797.00;;;13.90
11424;BMP180;5768;51.476;7.210;2022-12-29T05:59:20;98793.00;;;13.90
11424;BMP180;5768;51.476;7.210;2022-12-29T06:04:22;98796.00;;;14.10
11424;BMP180;5768;51.476;7.210;2022-12-29T06:09:26;98798.00;;;14.10
11424;BMP180;5768;51.476;7.210;2022-12-29T06:14:28;98805.00;;;14.20
11424;BMP180;5768;51.476;7.210;2022-12-29T06:19:30;98810.00;;;14.20
11424;BMP180;5768;51.476;7.210;2022-12-29T06:24:34;98830.00;;;14.30
11424;BMP180;5768;51.476;7.210;2022-12-29T06:29:36;98828.00;;;14.40
11424;BMP180;5768;51.476;7.210;2022-12-29T06:34:41;98841.00;;;14.40
11424;BMP180;5768;51.476;7.210;2022-12-29T06:39:44;98846.00;;;14.30
11424;BMP180;5768;51.476;7.210;2022-12-29T06:44:46;98850.00;;;14.20
11424;BMP180;5768;51.476;7.210;2022-12-29T06:49:48;98858.00;;;14.30
11424;BMP180;5768;51.476;7.210;2022-12-29T06:54:52;98874.00;;;14.40
11424;BMP180;5768;51.476;7.210;2022-12-29T06:59:54;98863.00;;;14.40
11424;BMP180;5768;51.476;7.210;2022-12-29T07:04:57;98899.00;;;14.50
11424;BMP180;5768;51.476;7.210;2022-12-29T07:10:00;98888.00;;;14.50
11424;BMP180;5768;51.476;7.210;2022-12-29T07:15:03;98866.00;;;14.40
11424;BMP180;5768;51.476;7.210;2022-12-29T07:20:07;98865.00;;;14.30
11424;BMP180;5768;51.476;7.210;2022-12-29T07:25:11;98878.00;;;14.30
11424;BMP180;5768;51.476;7.210;2022-12-29T07:30:13;98895.00;;;14.30
11424;BMP180;5768;51.476;7.210;2022-12-29T07:35:15;98892.00;;;14.30
11424;BMP180;5768;51.476;7.210;2022-12-29T07:40:19;98891.00;;;14.30
11424;BMP180;5768;51.476;7.210;2022-12-29T07:45:21;98896.00;;;14.30
11424;BMP180;5768;51.476;7.210;2022-12-29T07:50:23;98920.00;;;14.30
11424;BMP180;5768;51.476;7.210;2022-12-29T07:55:26;98951.00;;;14.30
11424;BMP180;5768;51.476;7.210;2022-12-29T08:00:29;98960.00;;;14.20
11424;BMP180;5768;51.476;7.210;2022-12-29T08:05:32;98955.00;;;14.30
11424;BMP180;5768;51.476;7.210;2022-12-29T08:10:36;98963.00;;;14.20
11424;BMP180;5768;51.476;7.210;2022-12-29T08:15:38;98951.00;;;14.20
11424;BMP180;5768;51.476;7.210;2022-12-29T08:20:40;98973.00;;;14.20
11424;BMP180;5768;51.476;7.210;2022-12-29T08:25:43;98969.00;;;14.30
11424;BMP180;5768;51.476;7.210;2022-12-29T08:30:45;98957.00;;;14.20
11424;BMP180;5768;51.476;7.210;2022-12-29T08:35:48;98950.00;;;14.20
11424;BMP180;5768;51.476;7.210;2022-12-29T08:40:52;98992.00;;;14.30
11424;BMP180;5768;51.476;7.210;2022-12-29T08:45:55;98971.00;;;14.30
11424;BMP180;5768;51.476;7.210;2022-12-29T08:50:57;98979.00;;;14.30
11424;BMP180;5768;51.476;7.210;2022-12-29T08:56:01;99000.00;;;14.30
11424;BMP180;5768;51.476;7.210;2022-12-29T09:01:04;99021.00;;;14.20
11424;BMP180;5768;51.476;7.210;2022-12-29T09:06:06;98981.00;;;14.10
11424;BMP180;5768;51.476;7.210;2022-12-29T09:11:13;98989.00;;;13.80
11424;BMP180;5768;51.476;7.210;2022-12-29T09:16:17;99001.00;;;13.60
11424;BMP180;5768;51.476;7.210;2022-12-29T09:21:19;98997.00;;;13.80
11424;BMP180;5768;51.476;7.210;2022-12-29T09:26:23;99016.00;;;13.70
11424;BMP180;5768;51.476;7.210;2022-12-29T09:31:25;99014.00;;;13.80
11424;BMP180;5768;51.476;7.210;2022-12-29T09:36:27;99000.00;;;14.00
11424;BMP180;5768;51.476;7.210;2022-12-29T09:41:38;99013.00;;;14.10
11424;BMP180;5768;51.476;7.210;2022-12-29T09:46:45;99004.00;;;14.10
11424;BMP180;5768;51.476;7.210;2022-12-29T09:51:54;99007.00;;;14.20
11424;BMP180;5768;51.476;7.210;2022-12-29T09:56:59;99000.00;;;14.30
11424;BMP180;5768;51.476;7.210;2022-12-29T10:02:15;99019.00;;;14.40
11424;BMP180;5768;51.476;7.210;2022-12-29T10:07:37;99013.00;;;14.40
11424;BMP180;5768;51.476;7.210;2022-12-29T10:13:01;99009.00;;;14.40
11424;BMP180;5768;51.476;7.210;2022-12-29T10:23:43;99027.00;;;14.50
11424;BMP180;5768;51.476;7.210;2022-12-29T10:28:51;99010.00;;;14.50
11424;BMP180;5768;51.476;7.210;2022-12-29T10:34:00;98987.00;;;14.60
11424;BMP180;5768;51.476;7.210;2022-12-29T10:39:15;99016.00;;;14.70
11424;BMP180;5768;51.476;7.210;2022-12-29T10:44:21;99018.00;;;14.70
11424;BMP180;5768;51.476;7.210;2022-12-29T10:49:26;99019.00;;;14.70
11424;BMP180;5768;51.476;7.210;2022-12-29T10:54:36;99022.00;;;14.70
11424;BMP180;5768;51.476;7.210;2022-12-29T10:59:43;99043.00;;;14.60
11424;BMP180;5768;51.476;7.210;2022-12-29T11:04:55;99049.00;;;14.60
11424;BMP180;5768;51.476;7.210;2022-12-29T11:10:17;99041.00;;;14.50
11424;BMP180;5768;51.476;7.210;2022-12-29T11:15:21;99050.00;;;14.50
11424;BMP180;5768;51.476;7.210;2022-12-29T11:20:31;99116.00;;;14.50
11424;BMP180;5768;51.476;7.210;2022-12-29T11:25:34;99051.00;;;14.40
11424;BMP180;5768;51.476;7.210;2022-12-29T11:30:37;99067.00;;;14.40
11424;BMP180;5768;51.476;7.210;2022-12-29T11:35:42;99088.00;;;14.30
11424;BMP180;5768;51.476;7.210;2022-12-29T11:40:45;99073.00;;;14.30
11424;BMP180;5768;51.476;7.210;2022-12-29T11:45:48;99102.00;;;14.40
11424;BMP180;5768;51.476;7.210;2022-12-29T11:50:53;99091.00;;;14.40
11424;BMP180;5768;51.476;7.210;2022-12-29T11:55:59;99101.00;;;14.40
11424;BMP180;5768;51.476;7.210;2022-12-29T12:01:07;99121.00;;;14.50
11424;BMP180;5768;51.476;7.210;2022-12-29T12:06:16;99110.00;;;14.60
11424;BMP180;5768;51.476;7.210;2022-12-29T12:11:27;99104.00;;;14.50
11424;BMP180;5768;51.476;7.210;2022-12-29T12:16:41;99126.00;;;14.50
11424;BMP180;5768;51.476;7.210;2022-12-29T12:21:51;99103.00;;;14.50
11424;BMP180;5768;51.476;7.210;2022-12-29T12:27:00;99165.00;;;14.50
11424;BMP180;5768;51.476;7.210;2022-12-29T12:32:14;99120.00;;;14.50
11424;BMP180;5768;51.476;7.210;2022-12-29T12:37:45;99121.00;;;14.40
11424;BMP180;5768;51.476;7.210;2022-12-29T12:43:08;99139.00;;;14.40
11424;BMP180;5768;51.476;7.210;2022-12-29T12:48:48;99146.00;;;14.30
11424;BMP180;5768;51.476;7.210;2022-12-29T12:54:16;99150.00;;;14.30
11424;BMP180;5768;51.476;7.210;2022-12-29T12:59:40;99146.00;;;14.30
11424;BMP180;5768;51.476;7.210;2022-12-29T13:05:04;99160.00;;;14.30
11424;BMP180;5768;51.476;7.210;2022-12-29T13:10:35;99136.00;;;14.30
11424;BMP180;5768;51.476;7.210;2022-12-29T13:15:52;99147.00;;;14.30
11424;BMP180;5768;51.476;7.210;2022-12-29T13:21:10;99166.00;;;14.20
11424;BMP180;5768;51.476;7.210;2022-12-29T13:26:20;99161.00;;;14.30
11424;BMP180;5768;51.476;7.210;2022-12-29T13:31:32;99144.00;;;14.30
11424;BMP180;5768;51.476;7.210;2022-12-29T13:36:42;99165.00;;;14.30
11424;BMP180;5768;51.476;7.210;2022-12-29T13:41:50;99191.00;;;14.30
11424;BMP180;5768;51.476;7.210;2022-12-29T13:46:56;99218.00;;;14.10
11424;BMP180;5768;51.476;7.210;2022-12-29T13:52:15;99187.00;;;14.00
11424;BMP180;5768;51.476;7.210;2022-12-29T13:57:35;99171.00;;;13.90
11424;BMP180;5768;51.476;7.210;2022-12-29T14:03:04;99192.00;;;13.90
11424;BMP180;5768;51.476;7.210;2022-12-29T14:08:17;99205.00;;;13.90
11424;BMP180;5768;51.476;7.210;2022-12-29T14:13:22;99194.00;;;13.90
11424;BMP180;5768;51.476;7.210;2022-12-29T14:18:27;99199.00;;;13.90
11424;BMP180;5768;51.476;7.210;2022-12-29T14:23:41;99215.00;;;13.90
11424;BMP180;5768;51.476;7.210;2022-12-29T14:28:46;99209.00;;;13.90
11424;BMP180;5768;51.476;7.210;2022-12-29T14:34:28;99229.00;;;13.90
11424;BMP180;5768;51.476;7.210;2022-12-29T14:39:45;99223.00;;;13.90
11424;BMP180;5768;51.476;7.210;2022-12-29T14:44:51;99229.00;;;13.90
11424;BMP180;5768;51.476;7.210;2022-12-29T14:49:54;99254.00;;;13.80
11424;BMP180;5768;51.476;7.210;2022-12-29T15:00:44;99225.00;;;13.80
11424;BMP180;5768;51.476;7.210;2022-12-29T15:05:54;99225.00;;;13.80
11424;BMP180;5768;51.476;7.210;2022-12-29T15:11:04;99250.00;;;13.80
11424;BMP180;5768;51.476;7.210;2022-12-29T15:16:23;99235.00;;;13.70
11424;BMP180;5768;51.476;7.210;2022-12-29T15:21:29;99240.00;;;13.70
11424;BMP180;5768;51.476;7.210;2022-12-29T15:26:40;99266.00;;;13.80
11424;BMP180;5768;51.476;7.210;2022-12-29T15:31:46;99240.00;;;13.60
11424;BMP180;5768;51.476;7.210;2022-12-29T15:36:50;99242.00;;;13.60
11424;BMP180;5768;51.476;7.210;2022-12-29T15:41:57;99234.00;;;13.60
11424;BMP180;5768;51.476;7.210;2022-12-29T15:47:11;99245.00;;;13.60
11424;BMP180;5768;51.476;7.210;2022-12-29T15:52:19;99260.00;;;13.60
11424;BMP180;5768;51.476;7.210;2022-12-29T15:57:26;99259.00;;;13.50
11424;BMP180;5768;51.476;7.210;2022-12-29T16:02:29;99269.00;;;13.50
11424;BMP180;5768;51.476;7.210;2022-12-29T16:07:33;99282.00;;;13.50
11424;BMP180;5768;51.476;7.210;2022-12-29T16:12:38;99276.00;;;13.50
11424;BMP180;5768;51.476;7.210;2022-12-29T16:17:47;99306.00;;;13.50
11424;BMP180;5768;51.476;7.210;2022-12-29T16:22:55;99317.00;;;13.20
11424;BMP180;5768;51.476;7.210;2022-12-29T16:28:00;99296.00;;;13.10
11424;BMP180;5768;51.476;7.210;2022-12-29T16:33:05;99318.00;;;12.90
11424;BMP180;5768;51.476;7.210;2022-12-29T16:38:15;99296.00;;;13.00
11424;BMP180;5768;51.476;7.210;2022-12-29T16:43:24;99292.00;;;12.90
11424;BMP180;5768;51.476;7.210;2022-12-29T16:48:28;99307.00;;;12.80
11424;BMP180;5768;51.476;7.210;2022-12-29T16:53:36;99286.00;;;12.80
11424;BMP180;5768;51.476;7.210;2022-12-29T16:58:40;99299.00;;;12.90
11424;BMP180;5768;51.476;7.210;2022-12-29T17:03:50;99304.00;;;12.90
11424;BMP180;5768;51.476;7.210;2022-12-29T17:08:53;99299.00;;;13.00
11424;BMP180;5768;51.476;7.210;2022-12-29T17:13:56;99307.00;;;13.10
11424;BMP180;5768;51.476;7.210;2022-12-29T17:18:58;99330.00;;;13.10
11424;BMP180;5768;51.476;7.210;2022-12-29T17:24:00;99343.00;;;13.10
11424;BMP180;5768;51.476;7.210;2022-12-29T17:29:04;99356.00;;;13.10
11424;BMP180;5768;51.476;7.210;2022-12-29T17:34:07;99353.00;;;13.00
11424;BMP180;5768;51.476;7.210;2022-12-29T17:39:12;99391.00;;;13.00
11424;BMP180;5768;51.476;7.210;2022-12-29T17:44:19;99401.00;;;12.50
11424;BMP180;5768;51.476;7.210;2022-12-29T17:49:22;99410.00;;;12.10
11424;BMP180;5768;51.476;7.210;2022-12-29T17:54:25;99406.00;;;12.00
11424;BMP180;5768;51.476;7.210;2022-12-29T17:59:28;99393.00;;;11.80
11424;BMP180;5768;51.476;7.210;2022-12-29T18:04:31;99402.00;;;11.50
11424;BMP180;5768;51.476;7.210;2022-12-29T18:09:33;99427.00;;;11.10
11424;BMP180;5768;51.476;7.210;2022-12-29T18:14:36;99405.00;;;10.80
11424;BMP180;5768;51.476;7.210;2022-12-29T18:19:38;99400.00;;;10.50
11424;BMP180;5768;51.476;7.210;2022-12-29T18:24:40;99394.00;;;10.20
11424;BMP180;5768;51.476;7.210;2022-12-29T18:29:45;99402.00;;;10.00
11424;BMP180;5768;51.476;7.210;2022-12-29T18:34:47;99414.00;;;10.00
11424;BMP180;5768;51.476;7.210;2022-12-29T18:39:49;99426.00;;;10.10
11424;BMP180;5768;51.476;7.210;2022-12-29T18:44:53;99409.00;;;10.00
11424;BMP180;5768;51.476;7.210;2022-12-29T18:49:55;99433.00;;;9.90
11424;BMP180;5768;51.476;7.210;2022-12-29T18:54:57;99426.00;;;9.90
11424;BMP180;5768;51.476;7.210;2022-12-29T19:00:01;99438.00;;;10.00
11424;BMP180;5768;51.476;7.210;2022-12-29T19:05:15;99427.00;;;10.10
11424;BMP180;5768;51.476;7.210;2022-12-29T19:10:21;99425.00;;;10.20
11424;BMP180;5768;51.476;7.210;2022-12-29T19:15:28;99428.00;;;10.20
11424;BMP180;5768;51.476;7.210;2022-12-29T19:20:34;99443.00;;;10.30
11424;BMP180;5768;51.476;7.210;2022-12-29T19:25:37;99446.00;;;10.30
11424;BMP180;5768;51.476;7.210;2022-12-29T19:30:41;99431.00;;;10.40
11424;BMP180;5768;51.476;7.210;2022-12-29T19:35:43;99445.00;;;10.40
11424;BMP180;5768;51.476;7.210;2022-12-29T19:40:48;99461.00;;;10.40
11424;BMP180;5768;51.476;7.210;2022-12-29T19:45:52;99468.00;;;10.50
11424;BMP180;5768;51.476;7.210;2022-12-29T19:51:03;99474.00;;;10.50
11424;BMP180;5768;51.476;7.210;2022-12-29T19:56:08;99481.00;;;10.60
11424;BMP180;5768;51.476;7.210;2022-12-29T20:01:14;99492.00;;;10.60
11424;BMP180;5768;51.476;7.210;2022-12-29T20:06:17;99479.00;;;10.50
11424;BMP180;5768;51.476;7.210;2022-12-29T20:11:20;99496.00;;;10.50
11424;BMP180;5768;51.476;7.210;2022-12-29T20:16:23;99504.00;;;10.50
11424;BMP180;5768;51.476;7.210;2022-12-29T20:21:26;99502.00;;;10.50
11424;BMP180;5768;51.476;7.210;2022-12-29T20:26:28;99517.00;;;10.50
11424;BMP180;5768;51.476;7.210;2022-12-29T20:31:35;99516.00;;;10.50
11424;BMP180;5768;51.476;7.210;2022-12-29T20:36:40;99522.00;;;10.50
11424;BMP180;5768;51.476;7.210;2022-12-29T20:41:43;99523.00;;;10.60
11424;BMP180;5768;51.476;7.210;2022-12-29T20:46:47;99526.00;;;10.50
11424;BMP180;5768;51.476;7.210;2022-12-29T20:51:50;99523.00;;;10.50
11424;BMP180;5768;51.476;7.210;2022-12-29T20:56:52;99531.00;;;10.50
11424;BMP180;5768;51.476;7.210;2022-12-29T21:01:56;99524.00;;;10.40
11424;BMP180;5768;51.476;7.210;2022-12-29T21:06:58;99524.00;;;10.40
11424;BMP180;5768;51.476;7.210;2022-12-29T21:12:01;99527.00;;;10.40
11424;BMP180;5768;51.476;7.210;2022-12-29T21:17:08;99540.00;;;10.30
11424;BMP180;5768;51.476;7.210;2022-12-29T21:22:10;99575.00;;;10.30
11424;BMP180;5768;51.476;7.210;2022-12-29T21:27:12;99542.00;;;10.20
11424;BMP180;5768;51.476;7.210;2022-12-29T21:32:15;99551.00;;;10.20
11424;BMP180;5768;51.476;7.210;2022-12-29T21:37:18;99551.00;;;10.20
11424;BMP180;5768;51.476;7.210;2022-12-29T21:42:20;99562.00;;;10.10
11424;BMP180;5768;51.476;7.210;2022-12-29T21:47:24;99571.00;;;10.10
11424;BMP180;5768;51.476;7.210;2022-12-29T21:52:46;99563.00;;;10.10
11424;BMP180;5768;51.476;7.210;2022-12-29T21:57:48;99549.00;;;10.10
11424;BMP180;5768;51.476;7.210;2022-12-29T22:03:17;99569.00;;;10.00
11424;BMP180;5768;51.476;7.210;2022-12-29T22:08:38;99569.00;;;10.00
11424;BMP180;5768;51.476;7.210;2022-12-29T22:13:58;99581.00;;;9.90
11424;BMP180;5768;51.476;7.210;2022-12-29T22:19:02;99572.00;;;9.90
11424;BMP180;5768;51.476;7.210;2022-12-29T22:24:13;99588.00;;;9.90
11424;BMP180;5768;51.476;7.210;2022-12-29T22:29:15;99585.00;;;9.90
11424;BMP180;5768;51.476;7.210;2022-12-29T22:34:19;99597.00;;;10.00
11424;BMP180;5768;51.476;7.210;2022-12-29T22:39:21;99607.00;;;10.00
11424;BMP180;5768;51.476;7.210;2022-12-29T22:44:23;99587.00;;;9.90
11424;BMP180;5768;51.476;7.210;2022-12-29T22:49:27;99611.00;;;9.90
11424;BMP180;5768;51.476;7.210;2022-12-29T22:54:30;99620.00;;;9.90
11424;BMP180;5768;51.476;7.210;2022-12-29T22:59:33;99617.00;;;9.80
11424;BMP180;5768;51.476;7.210;2022-12-29T23:04:36;99623.00;;;9.80
11424;BMP180;5768;51.476;7.210;2022-12-29T23:09:39;99633.00;;;9.80
11424;BMP180;5768;51.476;7.210;2022-12-29T23:14:41;99650.00;;;9.80
11424;BMP180;5768;51.476;7.210;2022-12-29T23:19:45;99648.00;;;9.80
11424;BMP180;5768;51.476;7.210;2022-12-29T23:24:47;99671.00;;;9.80
11424;BMP180;5768;51.476;7.210;2022-12-29T23:29:49;99670.00;;;9.80
11424;BMP180;5768;51.476;7.210;2022-12-29T23:34:52;99678.00;;;9.80
11424;BMP180;5768;51.476;7.210;2022-12-29T23:39:55;99684.00;;;9.70
11424;BMP180;5768;51.476;7.210;2022-12-29T23:44:57;99695.00;;;9.70
11424;BMP180;5768;51.476;7.210;2022-12-29T23:50:00;99703.00;;;9.70
11424;BMP180;5768;51.476;7.210;2022-12-29T23:55:03;99725.00;;;9.70
